sensor_id;sensor_type;location;lat;lon;timestamp;temperature;humidity
32753;DHT22;19121;52.428;10.816;2023-07-13T00:01:28;24.80;50.30
32753;DHT22;19121;52.428;10.816;2023-07-13T00:03:54;24.70;50.30
32753;DHT22;19121;52.428;10.816;2023-07-13T00:06:19;24.70;50.40
32753;DHT22;19121;52.428;10.816;2023-07-13T00:08:45;24.70;50.40
32753;DHT22;19121;52.428;10.816;2023-07-13T00:11:12;24.70;50.40
32753;DHT22;19121;52.428;10.816;2023-07-13T00:13:38;24.70;50.40
32753;DHT22;19121;52.428;10.816;2023-07-13T00:16:04;24.70;50.50
32753;DHT22;19121;52.428;10.816;2023-07-13T00:18:30;24.60;50.60
32753;DHT22;19121;52.428;10.816;2023-07-13T00:20:56;24.60;50.60
32753;DHT22;19121;52.428;10.816;2023-07-13T00:23:33;24.60;50.60
32753;DHT22;19121;52.428;10.816;2023-07-13T00:26:00;24.60;50.70
32753;DHT22;19121;52.428;10.816;2023-07-13T00:28:25;24.60;50.70
32753;DHT22;19121;52.428;10.816;2023-07-13T00:30:51;24.60;50.70
32753;DHT22;19121;52.428;10.816;2023-07-13T00:33:16;24.60;50.60
32753;DHT22;19121;52.428;10.816;2023-07-13T00:35:42;24.60;50.60
32753;DHT22;19121;52.428;10.816;2023-07-13T00:38:09;24.60;50.60
32753;DHT22;19121;52.428;10.816;2023-07-13T00:40:34;24.60;50.60
32753;DHT22;19121;52.428;10.816;2023-07-13T00:43:00;24.60;50.60
32753;DHT22;19121;52.428;10.816;2023-07-13T00:47:51;24.60;50.60
32753;DHT22;19121;52.428;10.816;2023-07-13T00:50:16;24.60;50.60
32753;DHT22;19121;52.428;10.816;2023-07-13T00:52:45;24.60;50.70
32753;DHT22;19121;52.428;10.816;2023-07-13T00:55:11;24.60;50.70
32753;DHT22;19121;52.428;10.816;2023-07-13T00:57:38;24.50;50.70
32753;DHT22;19121;52.428;10.816;2023-07-13T01:00:04;24.50;50.70
32753;DHT22;19121;52.428;10.816;2023-07-13T01:02:31;24.50;50.70
32753;DHT22;19121;52.428;10.816;2023-07-13T01:04:57;24.50;50.70
32753;DHT22;19121;52.428;10.816;2023-07-13T01:07:22;24.50;50.70
32753;DHT22;19121;52.428;10.816;2023-07-13T01:09:48;24.50;50.70
32753;DHT22;19121;52.428;10.816;2023-07-13T01:12:13;24.50;50.70
32753;DHT22;19121;52.428;10.816;2023-07-13T01:14:39;24.50;50.80
32753;DHT22;19121;52.428;10.816;2023-07-13T01:17:04;24.50;50.80
32753;DHT22;19121;52.428;10.816;2023-07-13T01:19:35;24.50;50.80
32753;DHT22;19121;52.428;10.816;2023-07-13T01:22:06;24.50;50.80
32753;DHT22;19121;52.428;10.816;2023-07-13T01:24:34;24.50;50.80
32753;DHT22;19121;52.428;10.816;2023-07-13T01:27:00;24.40;50.80
32753;DHT22;19121;52.428;10.816;2023-07-13T01:29:26;24.40;50.80
32753;DHT22;19121;52.428;10.816;2023-07-13T01:31:51;24.40;50.80
32753;DHT22;19121;52.428;10.816;2023-07-13T01:34:16;24.40;50.90
32753;DHT22;19121;52.428;10.816;2023-07-13T01:36:42;24.40;50.90
32753;DHT22;19121;52.428;10.816;2023-07-13T01:39:08;24.40;50.80
32753;DHT22;19121;52.428;10.816;2023-07-13T01:41:33;24.40;50.80
32753;DHT22;19121;52.428;10.816;2023-07-13T01:43:59;24.40;50.80
32753;DHT22;19121;52.428;10.816;2023-07-13T01:46:24;24.40;50.80
32753;DHT22;19121;52.428;10.816;2023-07-13T01:48:50;24.40;50.80
32753;DHT22;19121;52.428;10.816;2023-07-13T01:51:17;24.40;50.80
32753;DHT22;19121;52.428;10.816;2023-07-13T01:53:42;24.40;50.80
32753;DHT22;19121;52.428;10.816;2023-07-13T01:56:08;24.40;50.80
32753;DHT22;19121;52.428;10.816;2023-07-13T01:58:33;24.40;50.80
32753;DHT22;19121;52.428;10.816;2023-07-13T02:00:58;24.40;50.80
32753;DHT22;19121;52.428;10.816;2023-07-13T02:03:24;24.40;50.80
32753;DHT22;19121;52.428;10.816;2023-07-13T02:05:49;24.30;50.80
32753;DHT22;19121;52.428;10.816;2023-07-13T02:08:15;24.40;50.80
32753;DHT22;19121;52.428;10.816;2023-07-13T02:10:40;24.40;50.70
32753;DHT22;19121;52.428;10.816;2023-07-13T02:13:06;24.40;50.70
32753;DHT22;19121;52.428;10.816;2023-07-13T02:15:31;24.40;50.60
32753;DHT22;19121;52.428;10.816;2023-07-13T02:17:57;24.40;50.60
32753;DHT22;19121;52.428;10.816;2023-07-13T02:20:24;24.40;50.60
32753;DHT22;19121;52.428;10.816;2023-07-13T02:22:49;24.40;50.50
32753;DHT22;19121;52.428;10.816;2023-07-13T02:25:15;24.40;50.50
32753;DHT22;19121;52.428;10.816;2023-07-13T02:27:40;24.40;50.50
32753;DHT22;19121;52.428;10.816;2023-07-13T02:30:06;24.40;50.50
32753;DHT22;19121;52.428;10.816;2023-07-13T02:32:31;24.40;50.50
32753;DHT22;19121;52.428;10.816;2023-07-13T02:34:57;24.40;50.50
32753;DHT22;19121;52.428;10.816;2023-07-13T02:37:22;24.40;50.50
32753;DHT22;19121;52.428;10.816;2023-07-13T02:39:48;24.40;50.50
32753;DHT22;19121;52.428;10.816;2023-07-13T02:42:13;24.30;50.50
32753;DHT22;19121;52.428;10.816;2023-07-13T02:44:39;24.40;50.50
32753;DHT22;19121;52.428;10.816;2023-07-13T02:47:04;24.40;50.50
32753;DHT22;19121;52.428;10.816;2023-07-13T02:49:30;24.40;50.50
32753;DHT22;19121;52.428;10.816;2023-07-13T02:51:55;24.40;50.50
32753;DHT22;19121;52.428;10.816;2023-07-13T02:54:21;24.40;50.50
32753;DHT22;19121;52.428;10.816;2023-07-13T02:56:46;24.30;50.50
32753;DHT22;19121;52.428;10.816;2023-07-13T02:59:12;24.30;50.50
32753;DHT22;19121;52.428;10.816;2023-07-13T03:01:38;24.40;50.50
32753;DHT22;19121;52.428;10.816;2023-07-13T03:04:03;24.30;50.50
32753;DHT22;19121;52.428;10.816;2023-07-13T03:06:30;24.40;50.50
32753;DHT22;19121;52.428;10.816;2023-07-13T03:08:55;24.30;50.50
32753;DHT22;19121;52.428;10.816;2023-07-13T03:11:21;24.30;50.50
32753;DHT22;19121;52.428;10.816;2023-07-13T03:13:46;24.30;50.60
32753;DHT22;19121;52.428;10.816;2023-07-13T03:16:12;24.30;51.20
32753;DHT22;19121;52.428;10.816;2023-07-13T03:18:39;24.30;50.60
32753;DHT22;19121;52.428;10.816;2023-07-13T03:21:05;24.30;50.60
32753;DHT22;19121;52.428;10.816;2023-07-13T03:23:30;24.30;50.50
32753;DHT22;19121;52.428;10.816;2023-07-13T03:26:06;24.30;50.60
32753;DHT22;19121;52.428;10.816;2023-07-13T03:28:31;24.30;50.60
32753;DHT22;19121;52.428;10.816;2023-07-13T03:31:00;24.20;50.60
32753;DHT22;19121;52.428;10.816;2023-07-13T03:33:26;24.20;50.70
32753;DHT22;19121;52.428;10.816;2023-07-13T03:35:51;24.20;50.70
32753;DHT22;19121;52.428;10.816;2023-07-13T03:38:17;24.20;50.70
32753;DHT22;19121;52.428;10.816;2023-07-13T03:40:42;24.20;50.70
32753;DHT22;19121;52.428;10.816;2023-07-13T03:43:08;24.20;50.80
32753;DHT22;19121;52.428;10.816;2023-07-13T03:45:33;24.20;50.80
32753;DHT22;19121;52.428;10.816;2023-07-13T03:47:59;24.20;50.80
32753;DHT22;19121;52.428;10.816;2023-07-13T03:50:24;24.10;50.80
32753;DHT22;19121;52.428;10.816;2023-07-13T03:52:49;24.10;50.80
32753;DHT22;19121;52.428;10.816;2023-07-13T03:55:16;24.10;50.90
32753;DHT22;19121;52.428;10.816;2023-07-13T03:57:41;24.10;50.90
32753;DHT22;19121;52.428;10.816;2023-07-13T04:00:07;24.10;51.00
32753;DHT22;19121;52.428;10.816;2023-07-13T04:02:33;24.10;51.10
32753;DHT22;19121;52.428;10.816;2023-07-13T04:04:58;24.10;51.00
32753;DHT22;19121;52.428;10.816;2023-07-13T04:07:23;24.10;51.00
32753;DHT22;19121;52.428;10.816;2023-07-13T04:09:49;24.10;51.00
32753;DHT22;19121;52.428;10.816;2023-07-13T04:12:14;24.10;51.00
32753;DHT22;19121;52.428;10.816;2023-07-13T04:14:40;24.10;51.00
32753;DHT22;19121;52.428;10.816;2023-07-13T04:17:05;24.10;50.90
32753;DHT22;19121;52.428;10.816;2023-07-13T04:19:31;24.20;51.50
32753;DHT22;19121;52.428;10.816;2023-07-13T04:21:56;24.20;50.80
32753;DHT22;19121;52.428;10.816;2023-07-13T04:24:22;24.20;51.40
32753;DHT22;19121;52.428;10.816;2023-07-13T04:26:47;24.20;50.70
32753;DHT22;19121;52.428;10.816;2023-07-13T04:29:12;24.20;50.60
32753;DHT22;19121;52.428;10.816;2023-07-13T04:31:38;24.30;50.50
32753;DHT22;19121;52.428;10.816;2023-07-13T04:34:03;24.30;50.40
32753;DHT22;19121;52.428;10.816;2023-07-13T04:36:29;24.40;50.40
32753;DHT22;19121;52.428;10.816;2023-07-13T04:38:54;24.40;50.30
32753;DHT22;19121;52.428;10.816;2023-07-13T04:41:20;24.40;50.20
32753;DHT22;19121;52.428;10.816;2023-07-13T04:43:46;24.50;50.00
32753;DHT22;19121;52.428;10.816;2023-07-13T04:46:13;24.50;49.90
32753;DHT22;19121;52.428;10.816;2023-07-13T04:48:39;24.60;49.80
32753;DHT22;19121;52.428;10.816;2023-07-13T04:51:04;24.70;49.70
32753;DHT22;19121;52.428;10.816;2023-07-13T04:53:30;24.70;49.60
32753;DHT22;19121;52.428;10.816;2023-07-13T04:55:55;24.80;49.50
32753;DHT22;19121;52.428;10.816;2023-07-13T04:58:21;24.80;49.40
32753;DHT22;19121;52.428;10.816;2023-07-13T05:00:46;24.90;49.30
32753;DHT22;19121;52.428;10.816;2023-07-13T05:03:12;24.90;49.10
32753;DHT22;19121;52.428;10.816;2023-07-13T05:05:38;25.00;49.10
32753;DHT22;19121;52.428;10.816;2023-07-13T05:08:03;25.00;49.00
32753;DHT22;19121;52.428;10.816;2023-07-13T05:10:29;25.00;48.90
32753;DHT22;19121;52.428;10.816;2023-07-13T05:12:54;25.10;48.90
32753;DHT22;19121;52.428;10.816;2023-07-13T05:15:21;25.10;48.70
32753;DHT22;19121;52.428;10.816;2023-07-13T05:17:47;25.20;48.70
32753;DHT22;19121;52.428;10.816;2023-07-13T05:20:13;25.20;48.50
32753;DHT22;19121;52.428;10.816;2023-07-13T05:22:38;25.30;48.40
32753;DHT22;19121;52.428;10.816;2023-07-13T05:25:04;25.40;48.40
32753;DHT22;19121;52.428;10.816;2023-07-13T05:27:30;25.40;48.30
32753;DHT22;19121;52.428;10.816;2023-07-13T05:29:55;25.40;48.10
32753;DHT22;19121;52.428;10.816;2023-07-13T05:32:21;25.60;48.10
32753;DHT22;19121;52.428;10.816;2023-07-13T05:34:46;25.60;48.00
32753;DHT22;19121;52.428;10.816;2023-07-13T05:37:12;25.60;48.10
32753;DHT22;19121;52.428;10.816;2023-07-13T05:39:37;25.70;48.00
32753;DHT22;19121;52.428;10.816;2023-07-13T05:42:03;25.70;48.00
32753;DHT22;19121;52.428;10.816;2023-07-13T05:44:28;25.80;48.00
32753;DHT22;19121;52.428;10.816;2023-07-13T05:46:54;25.70;47.80
32753;DHT22;19121;52.428;10.816;2023-07-13T05:49:22;25.70;47.70
32753;DHT22;19121;52.428;10.816;2023-07-13T05:51:47;25.70;47.60
32753;DHT22;19121;52.428;10.816;2023-07-13T05:54:13;25.70;47.80
32753;DHT22;19121;52.428;10.816;2023-07-13T05:56:38;25.70;47.80
32753;DHT22;19121;52.428;10.816;2023-07-13T05:59:03;25.70;47.90
32753;DHT22;19121;52.428;10.816;2023-07-13T06:01:29;25.60;47.70
32753;DHT22;19121;52.428;10.816;2023-07-13T06:03:55;25.70;47.70
32753;DHT22;19121;52.428;10.816;2023-07-13T06:06:20;25.70;47.40
32753;DHT22;19121;52.428;10.816;2023-07-13T06:08:45;25.70;47.70
32753;DHT22;19121;52.428;10.816;2023-07-13T06:13:36;25.80;47.30
32753;DHT22;19121;52.428;10.816;2023-07-13T06:16:02;25.80;47.50
32753;DHT22;19121;52.428;10.816;2023-07-13T06:18:30;25.90;47.50
32753;DHT22;19121;52.428;10.816;2023-07-13T06:20:55;26.00;47.60
32753;DHT22;19121;52.428;10.816;2023-07-13T06:23:21;26.00;47.60
32753;DHT22;19121;52.428;10.816;2023-07-13T06:25:46;26.10;47.50
32753;DHT22;19121;52.428;10.816;2023-07-13T06:28:11;26.10;47.30
32753;DHT22;19121;52.428;10.816;2023-07-13T06:30:40;26.20;47.10
32753;DHT22;19121;52.428;10.816;2023-07-13T06:33:05;26.20;46.80
32753;DHT22;19121;52.428;10.816;2023-07-13T06:35:31;26.20;46.50
32753;DHT22;19121;52.428;10.816;2023-07-13T06:37:56;26.30;46.60
32753;DHT22;19121;52.428;10.816;2023-07-13T06:40:21;26.30;46.20
32753;DHT22;19121;52.428;10.816;2023-07-13T06:42:47;26.30;46.30
32753;DHT22;19121;52.428;10.816;2023-07-13T06:45:12;26.40;46.20
32753;DHT22;19121;52.428;10.816;2023-07-13T06:47:38;26.40;46.10
32753;DHT22;19121;52.428;10.816;2023-07-13T06:50:03;26.50;45.40
32753;DHT22;19121;52.428;10.816;2023-07-13T06:52:29;26.50;45.20
32753;DHT22;19121;52.428;10.816;2023-07-13T06:54:54;26.50;45.50
32753;DHT22;19121;52.428;10.816;2023-07-13T06:57:20;26.50;45.50
32753;DHT22;19121;52.428;10.816;2023-07-13T06:59:45;26.50;45.50
32753;DHT22;19121;52.428;10.816;2023-07-13T07:02:10;26.60;45.20
32753;DHT22;19121;52.428;10.816;2023-07-13T07:04:36;26.60;44.50
32753;DHT22;19121;52.428;10.816;2023-07-13T07:07:02;26.50;43.90
32753;DHT22;19121;52.428;10.816;2023-07-13T07:09:27;26.50;44.40
32753;DHT22;19121;52.428;10.816;2023-07-13T07:11:55;26.60;44.50
32753;DHT22;19121;52.428;10.816;2023-07-13T07:14:20;26.60;44.70
32753;DHT22;19121;52.428;10.816;2023-07-13T07:16:46;26.60;44.90
32753;DHT22;19121;52.428;10.816;2023-07-13T07:19:11;26.60;44.80
32753;DHT22;19121;52.428;10.816;2023-07-13T07:21:37;26.50;45.00
32753;DHT22;19121;52.428;10.816;2023-07-13T07:24:02;26.40;44.80
32753;DHT22;19121;52.428;10.816;2023-07-13T07:26:30;26.40;44.80
32753;DHT22;19121;52.428;10.816;2023-07-13T07:28:55;26.40;45.00
32753;DHT22;19121;52.428;10.816;2023-07-13T07:31:20;26.30;45.20
32753;DHT22;19121;52.428;10.816;2023-07-13T07:33:46;26.30;45.30
32753;DHT22;19121;52.428;10.816;2023-07-13T07:36:11;26.30;45.30
32753;DHT22;19121;52.428;10.816;2023-07-13T07:38:37;26.30;45.10
32753;DHT22;19121;52.428;10.816;2023-07-13T07:41:03;26.30;45.10
32753;DHT22;19121;52.428;10.816;2023-07-13T07:43:29;26.30;45.30
32753;DHT22;19121;52.428;10.816;2023-07-13T07:45:55;26.30;45.70
32753;DHT22;19121;52.428;10.816;2023-07-13T07:48:21;26.30;45.10
32753;DHT22;19121;52.428;10.816;2023-07-13T07:50:46;26.40;45.40
32753;DHT22;19121;52.428;10.816;2023-07-13T07:53:12;26.40;45.30
32753;DHT22;19121;52.428;10.816;2023-07-13T07:55:38;26.40;45.20
32753;DHT22;19121;52.428;10.816;2023-07-13T07:58:04;26.40;45.30
32753;DHT22;19121;52.428;10.816;2023-07-13T08:00:29;26.50;45.40
32753;DHT22;19121;52.428;10.816;2023-07-13T08:02:57;26.50;45.20
32753;DHT22;19121;52.428;10.816;2023-07-13T08:05:22;26.40;45.10
32753;DHT22;19121;52.428;10.816;2023-07-13T08:07:47;26.40;45.00
32753;DHT22;19121;52.428;10.816;2023-07-13T08:10:13;26.40;44.80
32753;DHT22;19121;52.428;10.816;2023-07-13T08:12:39;26.40;45.10
32753;DHT22;19121;52.428;10.816;2023-07-13T08:15:05;26.40;45.10
32753;DHT22;19121;52.428;10.816;2023-07-13T08:17:31;26.40;45.00
32753;DHT22;19121;52.428;10.816;2023-07-13T08:19:56;26.40;44.80
32753;DHT22;19121;52.428;10.816;2023-07-13T08:22:22;26.40;44.90
32753;DHT22;19121;52.428;10.816;2023-07-13T08:24:47;26.40;45.10
32753;DHT22;19121;52.428;10.816;2023-07-13T08:27:20;26.50;45.20
32753;DHT22;19121;52.428;10.816;2023-07-13T08:29:47;26.50;45.00
32753;DHT22;19121;52.428;10.816;2023-07-13T08:32:12;26.50;45.10
32753;DHT22;19121;52.428;10.816;2023-07-13T08:34:39;26.50;44.90
32753;DHT22;19121;52.428;10.816;2023-07-13T08:37:04;26.50;44.90
32753;DHT22;19121;52.428;10.816;2023-07-13T08:39:30;26.50;44.90
32753;DHT22;19121;52.428;10.816;2023-07-13T08:41:57;26.50;44.80
32753;DHT22;19121;52.428;10.816;2023-07-13T08:44:30;26.50;45.00
32753;DHT22;19121;52.428;10.816;2023-07-13T08:47:01;26.50;44.90
32753;DHT22;19121;52.428;10.816;2023-07-13T08:49:27;26.50;44.80
32753;DHT22;19121;52.428;10.816;2023-07-13T08:51:54;26.50;44.70
32753;DHT22;19121;52.428;10.816;2023-07-13T08:54:36;26.50;44.70
32753;DHT22;19121;52.428;10.816;2023-07-13T08:57:03;26.50;44.50
32753;DHT22;19121;52.428;10.816;2023-07-13T08:59:34;26.50;44.40
32753;DHT22;19121;52.428;10.816;2023-07-13T09:04:40;26.60;44.20
32753;DHT22;19121;52.428;10.816;2023-07-13T09:07:13;26.50;44.00
32753;DHT22;19121;52.428;10.816;2023-07-13T09:12:25;26.50;43.90
32753;DHT22;19121;52.428;10.816;2023-07-13T09:14:56;26.50;43.80
32753;DHT22;19121;52.428;10.816;2023-07-13T09:17:24;26.50;44.00
32753;DHT22;19121;52.428;10.816;2023-07-13T09:20:02;26.50;43.90
32753;DHT22;19121;52.428;10.816;2023-07-13T09:22:29;26.50;43.90
32753;DHT22;19121;52.428;10.816;2023-07-13T09:25:00;26.50;43.80
32753;DHT22;19121;52.428;10.816;2023-07-13T09:27:36;26.50;43.80
32753;DHT22;19121;52.428;10.816;2023-07-13T09:32:39;26.60;43.80
32753;DHT22;19121;52.428;10.816;2023-07-13T09:35:09;26.60;43.90
32753;DHT22;19121;52.428;10.816;2023-07-13T09:37:35;26.50;43.80
32753;DHT22;19121;52.428;10.816;2023-07-13T09:40:01;26.50;43.70
32753;DHT22;19121;52.428;10.816;2023-07-13T09:42:30;26.50;43.60
32753;DHT22;19121;52.428;10.816;2023-07-13T09:44:58;26.50;43.60
32753;DHT22;19121;52.428;10.816;2023-07-13T09:47:25;26.60;43.70
32753;DHT22;19121;52.428;10.816;2023-07-13T09:50:04;26.50;43.50
32753;DHT22;19121;52.428;10.816;2023-07-13T09:52:41;26.50;43.50
32753;DHT22;19121;52.428;10.816;2023-07-13T09:55:22;26.50;43.50
32753;DHT22;19121;52.428;10.816;2023-07-13T09:57:48;26.60;43.60
32753;DHT22;19121;52.428;10.816;2023-07-13T10:00:20;26.60;43.70
32753;DHT22;19121;52.428;10.816;2023-07-13T10:02:46;26.60;43.60
32753;DHT22;19121;52.428;10.816;2023-07-13T10:05:13;26.60;43.70
32753;DHT22;19121;52.428;10.816;2023-07-13T10:07:39;26.60;43.50
32753;DHT22;19121;52.428;10.816;2023-07-13T10:10:13;26.60;43.60
32753;DHT22;19121;52.428;10.816;2023-07-13T10:12:41;26.60;43.50
32753;DHT22;19121;52.428;10.816;2023-07-13T10:15:07;26.60;43.60
32753;DHT22;19121;52.428;10.816;2023-07-13T10:17:38;26.60;43.50
32753;DHT22;19121;52.428;10.816;2023-07-13T10:20:05;26.70;43.50
32753;DHT22;19121;52.428;10.816;2023-07-13T10:22:52;26.60;43.40
32753;DHT22;19121;52.428;10.816;2023-07-13T10:25:20;26.60;43.40
32753;DHT22;19121;52.428;10.816;2023-07-13T10:27:49;26.60;43.40
32753;DHT22;19121;52.428;10.816;2023-07-13T10:30:17;26.60;43.50
32753;DHT22;19121;52.428;10.816;2023-07-13T10:32:45;26.60;43.50
32753;DHT22;19121;52.428;10.816;2023-07-13T10:35:12;26.60;43.50
32753;DHT22;19121;52.428;10.816;2023-07-13T10:37:43;26.50;43.20
32753;DHT22;19121;52.428;10.816;2023-07-13T10:40:13;26.50;43.30
32753;DHT22;19121;52.428;10.816;2023-07-13T10:42:42;26.50;43.80
32753;DHT22;19121;52.428;10.816;2023-07-13T10:45:19;26.60;43.90
32753;DHT22;19121;52.428;10.816;2023-07-13T10:47:45;26.60;43.80
32753;DHT22;19121;52.428;10.816;2023-07-13T10:50:19;26.60;43.70
32753;DHT22;19121;52.428;10.816;2023-07-13T10:52:47;26.60;43.50
32753;DHT22;19121;52.428;10.816;2023-07-13T10:57:59;26.60;43.50
32753;DHT22;19121;52.428;10.816;2023-07-13T11:00:25;26.70;43.50
32753;DHT22;19121;52.428;10.816;2023-07-13T11:02:57;26.70;43.50
32753;DHT22;19121;52.428;10.816;2023-07-13T11:05:26;26.70;43.60
32753;DHT22;19121;52.428;10.816;2023-07-13T11:15:58;26.70;43.60
32753;DHT22;19121;52.428;10.816;2023-07-13T11:18:24;26.70;43.70
32753;DHT22;19121;52.428;10.816;2023-07-13T11:20:50;26.70;43.70
32753;DHT22;19121;52.428;10.816;2023-07-13T11:25:41;26.70;43.60
32753;DHT22;19121;52.428;10.816;2023-07-13T11:30:40;26.80;43.50
32753;DHT22;19121;52.428;10.816;2023-07-13T11:35:40;26.70;43.30
32753;DHT22;19121;52.428;10.816;2023-07-13T11:38:12;26.70;43.20
32753;DHT22;19121;52.428;10.816;2023-07-13T11:40:39;26.70;43.40
32753;DHT22;19121;52.428;10.816;2023-07-13T11:43:06;26.80;43.50
32753;DHT22;19121;52.428;10.816;2023-07-13T11:45:32;26.80;43.50
32753;DHT22;19121;52.428;10.816;2023-07-13T11:47:58;26.80;43.50
32753;DHT22;19121;52.428;10.816;2023-07-13T11:50:25;26.80;43.60
32753;DHT22;19121;52.428;10.816;2023-07-13T11:52:51;26.80;43.60
32753;DHT22;19121;52.428;10.816;2023-07-13T11:55:20;26.80;43.50
32753;DHT22;19121;52.428;10.816;2023-07-13T11:57:58;26.80;43.50
32753;DHT22;19121;52.428;10.816;2023-07-13T12:00:29;26.80;43.50
32753;DHT22;19121;52.428;10.816;2023-07-13T12:02:56;26.90;43.50
32753;DHT22;19121;52.428;10.816;2023-07-13T12:05:22;26.80;43.40
32753;DHT22;19121;52.428;10.816;2023-07-13T12:07:48;26.80;43.30
32753;DHT22;19121;52.428;10.816;2023-07-13T12:12:52;26.90;43.40
32753;DHT22;19121;52.428;10.816;2023-07-13T12:15:17;26.90;43.40
32753;DHT22;19121;52.428;10.816;2023-07-13T12:17:43;26.90;43.50
32753;DHT22;19121;52.428;10.816;2023-07-13T12:20:17;26.90;43.40
32753;DHT22;19121;52.428;10.816;2023-07-13T12:22:47;26.90;43.20
32753;DHT22;19121;52.428;10.816;2023-07-13T12:25:13;26.90;43.10
32753;DHT22;19121;52.428;10.816;2023-07-13T12:27:39;26.90;43.10
32753;DHT22;19121;52.428;10.816;2023-07-13T12:30:06;26.90;43.00
32753;DHT22;19121;52.428;10.816;2023-07-13T12:32:55;26.90;42.80
32753;DHT22;19121;52.428;10.816;2023-07-13T12:35:20;26.90;42.90
32753;DHT22;19121;52.428;10.816;2023-07-13T12:37:46;26.90;43.00
32753;DHT22;19121;52.428;10.816;2023-07-13T12:40:21;26.90;43.00
32753;DHT22;19121;52.428;10.816;2023-07-13T12:42:49;26.90;43.00
32753;DHT22;19121;52.428;10.816;2023-07-13T12:45:18;26.90;42.80
32753;DHT22;19121;52.428;10.816;2023-07-13T12:47:47;26.90;42.80
32753;DHT22;19121;52.428;10.816;2023-07-13T12:50:16;26.90;42.80
32753;DHT22;19121;52.428;10.816;2023-07-13T12:52:43;26.90;42.70
32753;DHT22;19121;52.428;10.816;2023-07-13T12:55:13;26.90;42.60
32753;DHT22;19121;52.428;10.816;2023-07-13T12:57:44;26.90;42.70
32753;DHT22;19121;52.428;10.816;2023-07-13T13:00:22;26.90;42.60
32753;DHT22;19121;52.428;10.816;2023-07-13T13:02:50;26.90;42.70
32753;DHT22;19121;52.428;10.816;2023-07-13T13:05:16;26.90;42.60
32753;DHT22;19121;52.428;10.816;2023-07-13T13:07:41;26.90;42.50
32753;DHT22;19121;52.428;10.816;2023-07-13T13:10:11;26.90;42.40
32753;DHT22;19121;52.428;10.816;2023-07-13T13:12:37;26.90;42.40
32753;DHT22;19121;52.428;10.816;2023-07-13T13:15:02;26.90;42.50
32753;DHT22;19121;52.428;10.816;2023-07-13T13:17:29;26.90;42.40
32753;DHT22;19121;52.428;10.816;2023-07-13T13:19:55;26.90;42.30
32753;DHT22;19121;52.428;10.816;2023-07-13T13:22:22;26.90;42.40
32753;DHT22;19121;52.428;10.816;2023-07-13T13:24:47;26.90;42.10
32753;DHT22;19121;52.428;10.816;2023-07-13T13:27:14;26.90;42.30
32753;DHT22;19121;52.428;10.816;2023-07-13T13:29:41;26.90;42.30
32753;DHT22;19121;52.428;10.816;2023-07-13T13:32:08;26.90;42.50
32753;DHT22;19121;52.428;10.816;2023-07-13T13:34:35;26.90;42.40
32753;DHT22;19121;52.428;10.816;2023-07-13T13:37:04;26.90;42.50
32753;DHT22;19121;52.428;10.816;2023-07-13T13:39:35;26.90;42.60
32753;DHT22;19121;52.428;10.816;2023-07-13T13:42:02;26.90;42.80
32753;DHT22;19121;52.428;10.816;2023-07-13T13:44:27;26.90;42.80
32753;DHT22;19121;52.428;10.816;2023-07-13T13:46:53;26.90;42.90
32753;DHT22;19121;52.428;10.816;2023-07-13T13:49:23;26.90;42.70
32753;DHT22;19121;52.428;10.816;2023-07-13T13:51:49;26.90;42.80
32753;DHT22;19121;52.428;10.816;2023-07-13T13:54:16;26.90;42.80
32753;DHT22;19121;52.428;10.816;2023-07-13T13:56:42;26.90;42.70
32753;DHT22;19121;52.428;10.816;2023-07-13T13:59:08;26.90;42.60
32753;DHT22;19121;52.428;10.816;2023-07-13T14:01:34;26.90;42.50
32753;DHT22;19121;52.428;10.816;2023-07-13T14:04:00;26.90;42.40
32753;DHT22;19121;52.428;10.816;2023-07-13T14:06:25;26.90;42.40
32753;DHT22;19121;52.428;10.816;2023-07-13T14:08:50;26.90;42.30
32753;DHT22;19121;52.428;10.816;2023-07-13T14:11:16;26.90;42.20
32753;DHT22;19121;52.428;10.816;2023-07-13T14:13:43;26.80;42.40
32753;DHT22;19121;52.428;10.816;2023-07-13T14:16:13;26.90;42.50
32753;DHT22;19121;52.428;10.816;2023-07-13T14:18:40;26.90;42.50
32753;DHT22;19121;52.428;10.816;2023-07-13T14:21:11;26.90;42.60
32753;DHT22;19121;52.428;10.816;2023-07-13T14:23:37;26.90;42.80
32753;DHT22;19121;52.428;10.816;2023-07-13T14:26:04;26.80;42.80
32753;DHT22;19121;52.428;10.816;2023-07-13T14:28:32;26.80;42.80
32753;DHT22;19121;52.428;10.816;2023-07-13T14:30:57;26.80;43.00
32753;DHT22;19121;52.428;10.816;2023-07-13T14:33:22;26.80;43.20
32753;DHT22;19121;52.428;10.816;2023-07-13T14:35:49;26.80;43.50
32753;DHT22;19121;52.428;10.816;2023-07-13T14:38:18;26.80;43.40
32753;DHT22;19121;52.428;10.816;2023-07-13T14:40:44;26.80;43.50
32753;DHT22;19121;52.428;10.816;2023-07-13T14:43:11;26.80;43.60
32753;DHT22;19121;52.428;10.816;2023-07-13T14:45:38;26.80;43.70
32753;DHT22;19121;52.428;10.816;2023-07-13T14:48:10;26.80;43.80
32753;DHT22;19121;52.428;10.816;2023-07-13T14:50:38;26.80;43.90
32753;DHT22;19121;52.428;10.816;2023-07-13T14:53:04;26.80;44.00
32753;DHT22;19121;52.428;10.816;2023-07-13T14:55:29;26.80;44.00
32753;DHT22;19121;52.428;10.816;2023-07-13T14:57:55;26.80;44.10
32753;DHT22;19121;52.428;10.816;2023-07-13T15:00:22;26.80;44.20
32753;DHT22;19121;52.428;10.816;2023-07-13T15:02:51;26.80;44.20
32753;DHT22;19121;52.428;10.816;2023-07-13T15:05:21;26.80;44.30
32753;DHT22;19121;52.428;10.816;2023-07-13T15:07:48;26.80;44.40
32753;DHT22;19121;52.428;10.816;2023-07-13T15:12:42;26.80;44.60
32753;DHT22;19121;52.428;10.816;2023-07-13T15:15:08;26.80;44.60
32753;DHT22;19121;52.428;10.816;2023-07-13T15:19:59;26.80;44.60
32753;DHT22;19121;52.428;10.816;2023-07-13T15:22:24;26.80;44.60
32753;DHT22;19121;52.428;10.816;2023-07-13T15:24:50;26.80;44.60
32753;DHT22;19121;52.428;10.816;2023-07-13T15:27:15;26.80;44.70
32753;DHT22;19121;52.428;10.816;2023-07-13T15:29:41;26.80;44.70
32753;DHT22;19121;52.428;10.816;2023-07-13T15:32:11;26.80;44.70
32753;DHT22;19121;52.428;10.816;2023-07-13T15:34:37;26.80;44.70
32753;DHT22;19121;52.428;10.816;2023-07-13T15:37:03;26.80;44.70
32753;DHT22;19121;52.428;10.816;2023-07-13T15:39:30;26.80;44.80
32753;DHT22;19121;52.428;10.816;2023-07-13T15:41:56;26.80;44.80
32753;DHT22;19121;52.428;10.816;2023-07-13T15:44:26;26.80;44.80
32753;DHT22;19121;52.428;10.816;2023-07-13T15:46:53;26.80;44.80
32753;DHT22;19121;52.428;10.816;2023-07-13T15:49:18;26.80;44.80
32753;DHT22;19121;52.428;10.816;2023-07-13T15:51:44;26.80;44.80